Time;durP1;ratioP1;P1;durP2;ratioP2;P2;SDS_P1;SDS_P2;PMS_P1;PMS_P2;Temp;Humidity;BMP_temperature;BMP_pressure;BME280_temperature;BME280_humidity;BME280_pressure;Samples;Min_cycle;Max_cycle;Signal;HPM_P1;HPM_P2
2022/06/19 00:00:41;;;;;;;7.00;4.78;;;;;;;15.19;71.47;99297.99;1716877;82;20901;-62
2022/06/19 00:03:20;;;;;;;;;;;;;;;15.17;71.53;99302.52;1717205;82;20995;-62
2022/06/19 00:05:47;;;;;;;7.37;4.35;;;;;;;15.15;71.82;99294.75;1709936;82;20126;-62
2022/06/19 00:08:13;;;;;;;5.17;4.17;;;;;;;15.15;71.82;99300.46;1714689;82;21524;-62
2022/06/19 00:10:40;;;;;;;7.72;4.60;;;;;;;15.11;72.00;99305.11;1720117;82;20945;-62
2022/06/19 00:13:07;;;;;;;7.73;4.57;;;;;;;15.11;72.06;99313.48;1719831;82;20991;-62
2022/06/19 00:15:34;;;;;;;10.43;4.50;;;;;;;15.15;71.96;99313.16;1713561;82;21057;-62
2022/06/19 00:18:01;;;;;;;8.53;4.22;;;;;;;15.14;71.95;99300.94;1714800;82;21435;-62
2022/06/19 00:20:27;;;;;;;7.58;4.40;;;;;;;15.08;72.19;99297.94;1720977;82;20883;-62
2022/06/19 00:22:54;;;;;;;9.23;4.15;;;;;;;15.04;72.32;99297.33;1714161;82;20878;-62
2022/06/19 00:25:21;;;;;;;7.58;4.70;;;;;;;14.99;72.33;99288.45;1720971;82;20985;-62
2022/06/19 00:27:48;;;;;;;6.70;4.57;;;;;;;14.96;72.42;99288.67;1721203;82;21460;-62
2022/06/19 00:34:57;;;;;;;7.25;5.17;;;;;;;14.94;73.19;99308.96;1831579;75;27907;-63
2022/06/19 00:37:25;;;;;;;4.30;3.90;;;;;;;14.93;72.82;99307.78;1816104;76;20973;-62
2022/06/19 00:39:52;;;;;;;7.97;4.58;;;;;;;14.94;72.97;99308.96;1837376;76;21492;-63
2022/06/19 00:42:18;;;;;;;12.90;5.00;;;;;;;14.91;73.10;99297.36;1819393;76;21531;-62
2022/06/19 00:44:47;;;;;;;6.15;4.05;;;;;;;14.90;73.21;99291.75;1819172;76;21020;-62
2022/06/19 00:47:22;;;;;;;9.30;4.72;;;;;;;14.89;73.26;99285.27;1821348;77;21086;-62
2022/06/19 00:50:06;;;;;;;9.33;4.10;;;;;;;14.87;73.53;99289.79;1828565;76;21640;-63
2022/06/19 00:52:39;;;;;;;5.53;3.80;;;;;;;14.83;73.58;99299.69;1827960;77;21140;-64
2022/06/19 00:55:23;;;;;;;4.70;4.08;;;;;;;14.79;73.83;99303.50;1824776;76;21013;-63
2022/06/19 00:58:00;;;;;;;6.70;4.20;;;;;;;14.74;73.90;99319.59;1821306;76;20927;-63
2022/06/19 01:00:30;;;;;;;5.22;4.33;;;;;;;14.74;73.88;99324.02;1818270;77;21223;-63
2022/06/19 01:03:17;;;;;;;6.30;4.47;;;;;;;14.69;74.01;99330.06;1818077;76;21123;-63
2022/06/19 01:05:44;;;;;;;6.53;4.33;;;;;;;14.66;74.05;99326.34;1783660;78;21477;-63
2022/06/19 01:08:12;;;;;;;5.97;4.22;;;;;;;14.64;74.14;99322.97;1789990;78;21195;-64
2022/06/19 01:10:43;;;;;;;6.33;4.53;;;;;;;14.61;74.29;99319.25;1804844;78;21009;-63
2022/06/19 01:13:12;;;;;;;4.83;4.00;;;;;;;14.57;74.51;99310.75;1793292;78;21088;-63
2022/06/19 01:15:39;;;;;;;7.47;4.75;;;;;;;14.54;74.60;99302.60;1801317;78;21054;-63
2022/06/19 01:18:09;;;;;;;6.22;4.37;;;;;;;14.50;74.55;99306.34;1787248;77;22258;-63
2022/06/19 01:20:39;;;;;;;7.92;4.47;;;;;;;14.52;74.61;99296.61;1797383;78;21783;-63
2022/06/19 01:23:29;;;;;;;5.20;4.30;;;;;;;14.47;74.72;99298.68;1796378;78;21068;-63
2022/06/19 01:25:56;;;;;;;9.05;4.33;;;;;;;14.46;74.81;99296.18;1798149;77;21052;-63
2022/06/19 01:28:45;;;;;;;5.62;4.70;;;;;;;14.42;75.02;99292.91;1800896;78;21085;-63
2022/06/19 01:31:21;;;;;;;10.30;5.65;;;;;;;14.39;75.09;99295.75;1793765;78;21341;-63
2022/06/19 01:33:52;;;;;;;8.00;4.85;;;;;;;14.36;75.20;99310.41;1798764;78;21527;-62
2022/06/19 01:36:21;;;;;;;7.53;4.70;;;;;;;14.35;75.25;99307.43;1803084;78;21120;-62
2022/06/19 01:38:52;;;;;;;6.00;4.47;;;;;;;14.35;75.28;99299.55;1800093;78;21088;-63
2022/06/19 01:41:32;;;;;;;7.30;4.85;;;;;;;14.34;75.34;99299.20;1811979;76;21119;-63
2022/06/19 01:43:59;;;;;;;9.70;5.30;;;;;;;14.35;75.39;99298.23;1826689;77;21065;-63
2022/06/19 01:46:28;;;;;;;5.97;4.28;;;;;;;14.32;75.42;99295.83;1820581;77;21028;-64
2022/06/19 01:48:56;;;;;;;6.60;4.37;;;;;;;14.31;75.47;99287.56;1820975;77;20906;-63
2022/06/19 01:51:23;;;;;;;6.50;4.47;;;;;;;14.23;75.44;99292.53;1826090;77;21053;-64
2022/06/19 01:54:04;;;;;;;6.22;4.90;;;;;;;14.19;75.51;99284.48;1815554;77;20977;-63
2022/06/19 01:56:31;;;;;;;5.58;4.65;;;;;;;14.13;75.52;99283.60;1820546;77;21492;-63
2022/06/19 01:59:05;;;;;;;7.05;4.65;;;;;;;14.02;75.59;99275.98;1831833;77;26643;-63
2022/06/19 02:01:34;;;;;;;7.83;4.58;;;;;;;13.94;75.76;99266.48;1818055;77;21045;-62
2022/06/19 02:04:02;;;;;;;7.22;4.72;;;;;;;13.92;75.92;99274.95;1773591;79;21009;-63
2022/06/19 02:06:34;;;;;;;6.05;4.55;;;;;;;13.88;76.00;99274.77;1770668;78;21195;-63
2022/06/19 02:09:03;;;;;;;4.95;4.37;;;;;;;13.85;76.13;99274.98;1759270;79;21618;-63
2022/06/19 02:11:34;;;;;;;6.12;4.30;;;;;;;13.85;76.22;99268.42;1769236;80;20997;-63
2022/06/19 02:14:04;;;;;;;7.00;4.45;;;;;;;13.82;76.28;99262.08;1762212;79;20994;-62
2022/06/19 02:16:35;;;;;;;7.65;4.67;;;;;;;13.81;76.36;99265.66;1755774;79;21053;-63
2022/06/19 02:19:03;;;;;;;5.80;4.50;;;;;;;13.82;76.48;99271.26;1759639;79;21063;-63
2022/06/19 02:21:49;;;;;;;8.15;4.97;;;;;;;13.79;76.31;99275.41;1766459;80;21133;-63
2022/06/19 02:24:20;;;;;;;7.03;5.42;;;;;;;13.70;76.41;99268.16;1756130;79;21003;-64
2022/06/19 02:26:48;;;;;;;8.55;5.12;;;;;;;13.69;76.63;99262.05;1756267;80;21123;-63
2022/06/19 02:29:18;;;;;;;6.78;5.53;;;;;;;13.69;76.80;99263.84;1764476;80;21049;-63
2022/06/19 02:31:55;;;;;;;8.70;5.72;;;;;;;13.72;76.97;99261.00;1758390;80;21079;-63
2022/06/19 02:34:38;;;;;;;5.95;4.95;;;;;;;13.74;77.00;99249.47;1760231;80;21113;-63
2022/06/19 02:37:21;;;;;;;6.42;5.05;;;;;;;13.77;77.08;99248.42;1757352;80;21047;-63
2022/06/19 02:39:59;;;;;;;9.70;5.67;;;;;;;13.81;77.19;99245.98;1757134;79;21524;-62
2022/06/19 02:42:37;;;;;;;6.03;5.33;;;;;;;13.86;77.29;99260.91;1761690;79;22514;-63
2022/06/19 02:45:11;;;;;;;7.08;5.15;;;;;;;13.88;77.25;99253.78;1758484;80;21076;-62
2022/06/19 02:47:39;;;;;;;5.85;4.87;;;;;;;13.89;77.26;99268.57;1751708;80;21191;-63
2022/06/19 02:50:09;;;;;;;7.97;5.12;;;;;;;13.94;77.40;99255.98;1762821;79;21013;-63
2022/06/19 02:52:36;;;;;;;6.67;4.78;;;;;;;13.91;77.29;99256.19;1756272;79;21022;-63
2022/06/19 02:55:03;;;;;;;7.28;4.78;;;;;;;13.91;77.37;99266.69;1755715;80;21061;-62
2022/06/19 02:57:30;;;;;;;;;;;;;;;13.90;77.42;99271.58;1759291;80;21009;-63
2022/06/19 02:59:57;;;;;;;7.33;4.67;;;;;;;13.96;77.56;99282.13;1760310;79;20982;-63
2022/06/19 03:02:25;;;;;;;6.47;4.80;;;;;;;13.96;77.58;99266.38;1751457;79;21068;-63
2022/06/19 03:04:59;;;;;;;11.78;5.47;;;;;;;13.98;77.56;99275.84;1752158;80;21027;-63
2022/06/19 03:07:26;;;;;;;7.17;4.97;;;;;;;14.14;77.85;99285.27;1758256;79;20999;-63
2022/06/19 03:09:54;;;;;;;6.60;5.15;;;;;;;14.38;77.93;99292.77;1765887;79;21166;-63
2022/06/19 03:12:21;;;;;;;8.93;4.97;;;;;;;14.65;77.99;99281.31;1759601;79;21081;-63
2022/06/19 03:14:48;;;;;;;6.92;4.92;;;;;;;14.94;77.88;99280.05;1752097;79;26640;-63
2022/06/19 03:17:21;;;;;;;9.13;5.10;;;;;;;15.22;77.70;99288.56;1758151;80;21597;-63
2022/06/19 03:19:48;;;;;;;6.87;4.60;;;;;;;15.59;78.04;99281.88;1758715;79;21022;-63
2022/06/19 03:22:15;;;;;;;7.12;4.50;;;;;;;16.04;77.84;99268.84;1763468;79;21772;-64
2022/06/19 03:24:42;;;;;;;7.50;4.58;;;;;;;16.42;77.90;99275.57;1760705;80;21485;-63
2022/06/19 03:27:11;;;;;;;5.60;4.42;;;;;;;16.98;77.88;99274.20;1770060;79;21034;-63
2022/06/19 03:29:38;;;;;;;7.03;4.40;;;;;;;17.45;77.30;99281.34;1753848;80;21584;-64
2022/06/19 03:32:08;;;;;;;6.97;4.70;;;;;;;17.67;76.88;99285.20;1765892;79;21001;-63
2022/06/19 03:34:35;;;;;;;9.88;4.53;;;;;;;17.85;76.79;99296.52;1760180;80;20922;-63
2022/06/19 03:37:02;;;;;;;8.73;4.17;;;;;;;18.03;76.82;99288.34;1765218;79;21120;-64
2022/06/19 03:39:29;;;;;;;7.30;4.00;;;;;;;18.61;77.00;99292.23;1760727;79;21205;-64
2022/06/19 03:41:56;;;;;;;5.22;4.00;;;;;;;19.20;76.55;99282.98;1753586;80;21614;-64
2022/06/19 03:44:23;;;;;;;9.45;4.22;;;;;;;19.55;75.77;99270.15;1761905;80;21494;-64
2022/06/19 03:46:49;;;;;;;;;;;;;;;19.61;74.86;99266.97;1765762;79;21633;-64
2022/06/19 03:49:16;;;;;;;4.75;3.62;;;;;;;19.37;74.39;99260.27;1760672;80;21060;-63
2022/06/19 03:51:43;;;;;;;7.42;3.55;;;;;;;19.25;74.48;99264.05;1760004;79;22162;-64
2022/06/19 03:54:10;;;;;;;;;;;;;;;19.55;75.03;99262.20;1762665;79;21584;-64
2022/06/19 03:56:38;;;;;;;6.12;3.72;;;;;;;19.69;74.27;99269.77;1766884;79;20113;-63
2022/06/19 03:59:07;;;;;;;5.75;4.08;;;;;;;20.08;75.00;99281.59;1765288;79;21211;-64
2022/06/19 04:01:37;;;;;;;7.42;4.30;;;;;;;20.71;75.37;99271.17;1785466;79;21505;-64
2022/06/19 04:04:04;;;;;;;6.12;3.65;;;;;;;21.50;74.73;99261.69;1765188;79;22446;-64
2022/06/19 04:06:36;;;;;;;6.17;4.00;;;;;;;22.35;74.87;99260.62;1781342;79;21508;-64
2022/06/19 04:09:06;;;;;;;6.42;3.65;;;;;;;23.20;73.85;99257.39;1767610;80;21113;-64
2022/06/19 04:11:33;;;;;;;8.73;4.05;;;;;;;23.68;73.11;99250.89;1793697;78;20971;-64
2022/06/19 04:14:00;;;;;;;6.00;4.00;;;;;;;23.94;72.47;99241.88;1770348;79;21330;-64
2022/06/19 04:16:31;;;;;;;7.78;3.85;;;;;;;24.28;71.60;99231.80;1767625;79;21571;-64
2022/06/19 04:19:01;;;;;;;6.95;4.10;;;;;;;24.56;71.57;99212.67;1793790;78;21147;-64
2022/06/19 04:21:32;;;;;;;5.67;3.40;;;;;;;25.08;71.27;99212.02;1760580;80;21033;-64
2022/06/19 04:24:05;;;;;;;4.97;3.47;;;;;;;25.12;69.52;99220.50;1781104;80;21056;-65
2022/06/19 04:26:37;;;;;;;6.28;3.52;;;;;;;25.17;69.37;99212.31;1758731;79;21095;-65
2022/06/19 04:29:05;;;;;;;8.85;3.42;;;;;;;25.27;68.55;99213.41;1774081;80;21583;-65
2022/06/19 04:31:33;;;;;;;5.80;2.85;;;;;;;25.21;67.95;99218.14;1793276;78;21024;-65
2022/06/19 04:34:00;;;;;;;4.75;3.02;;;;;;;25.37;67.55;99229.19;1789016;78;21026;-64
2022/06/19 04:36:29;;;;;;;6.83;3.05;;;;;;;25.72;67.39;99229.56;1786210;78;21005;-65
2022/06/19 04:38:57;;;;;;;6.40;2.55;;;;;;;26.13;67.03;99231.30;1796788;78;22415;-65
2022/06/19 04:41:38;;;;;;;7.72;2.83;;;;;;;26.55;66.17;99234.69;1728663;80;21062;-65
2022/06/19 04:44:08;;;;;;;4.87;2.72;;;;;;;26.73;65.39;99231.59;1795347;77;21068;-66
2022/06/19 04:46:36;;;;;;;5.72;2.83;;;;;;;27.30;65.84;99218.38;1755533;80;21130;-65
2022/06/19 04:49:03;;;;;;;5.83;2.52;;;;;;;27.73;65.25;99213.79;1798807;78;21032;-65
2022/06/19 04:51:30;;;;;;;3.77;2.02;;;;;;;28.15;64.18;99214.70;1798224;78;21102;-66
2022/06/19 04:53:57;;;;;;;3.85;2.10;;;;;;;28.37;63.34;99203.83;1770555;79;21610;-65
2022/06/19 04:56:24;;;;;;;3.85;2.15;;;;;;;28.80;62.48;99195.55;1783127;79;21104;-65
2022/06/19 04:58:51;;;;;;;7.35;2.40;;;;;;;28.89;61.56;99197.01;1776267;78;21110;-67
2022/06/19 05:01:23;;;;;;;5.28;1.72;;;;;;;28.89;60.71;99202.38;1775037;79;21042;-63
2022/06/19 05:03:53;;;;;;;2.77;1.60;;;;;;;28.82;59.87;99206.90;1758932;80;21841;-66
2022/06/19 05:06:21;;;;;;;5.75;1.95;;;;;;;28.73;59.15;99201.70;1792808;78;20930;-66
2022/06/19 05:08:48;;;;;;;5.33;2.17;;;;;;;28.75;59.87;99206.38;1763448;80;21047;-65
2022/06/19 05:11:16;;;;;;;4.45;2.25;;;;;;;29.49;59.87;99189.82;1790770;78;21068;-66
2022/06/19 05:13:43;;;;;;;5.90;2.00;;;;;;;29.69;58.72;99183.63;1782138;78;21507;-66
2022/06/19 05:16:14;;;;;;;8.73;2.60;;;;;;;29.55;57.28;99172.88;1756722;80;21078;-66
2022/06/19 05:18:43;;;;;;;5.83;2.05;;;;;;;29.08;57.14;99163.17;1791972;78;20975;-65
2022/06/19 05:21:11;;;;;;;5.97;2.10;;;;;;;28.70;55.97;99159.66;1788269;78;21041;-65
2022/06/19 05:23:42;;;;;;;4.05;2.00;;;;;;;28.15;55.64;99155.65;1779825;78;21491;-65
2022/06/19 05:26:20;;;;;;;7.05;2.50;;;;;;;27.75;54.96;99164.78;1751761;80;21552;-66
2022/06/19 05:28:50;;;;;;;5.75;2.35;;;;;;;27.49;54.96;99169.46;1765133;79;21285;-65
2022/06/19 05:31:18;;;;;;;7.17;2.47;;;;;;;27.56;54.66;99170.84;1762858;79;20923;-65
2022/06/19 05:33:45;;;;;;;7.65;2.33;;;;;;;27.88;54.53;99168.91;1772603;79;20990;-65
2022/06/19 05:48:46;;;;;;;;;;;;;;;29.20;51.87;99174.95;1863226;75;22660;-65
2022/06/19 05:51:18;;;;;;;7.50;2.12;;;;;;;29.26;50.97;99165.23;1844924;76;20202;-64
2022/06/19 05:53:49;;;;;;;3.37;1.82;;;;;;;29.03;51.14;99164.27;1824296;76;21894;-64
2022/06/19 05:56:16;;;;;;;3.80;1.80;;;;;;;28.89;50.71;99164.77;1817059;76;20990;-65
2022/06/19 05:58:43;;;;;;;7.08;2.05;;;;;;;28.97;50.41;99172.63;1827995;76;20975;-65
2022/06/19 06:01:12;;;;;;;4.12;1.60;;;;;;;29.11;49.86;99178.36;1819528;76;21570;-66
2022/06/19 06:03:41;;;;;;;6.97;2.25;;;;;;;29.11;49.86;99178.36;1812656;77;21062;-65
2022/06/19 06:06:16;;;;;;;6.50;2.05;;;;;;;29.31;49.65;99181.57;1826557;76;21076;-66
2022/06/19 06:08:43;;;;;;;4.60;1.82;;;;;;;29.71;49.07;99178.87;1826098;76;21036;-66
2022/06/19 06:11:11;;;;;;;4.72;1.98;;;;;;;29.77;48.50;99176.67;1792223;78;21577;-66
2022/06/19 06:13:38;;;;;;;5.80;2.65;;;;;;;29.45;47.81;99177.84;1774425;79;20970;-66
2022/06/19 06:16:06;;;;;;;6.15;2.22;;;;;;;29.42;47.99;99157.56;1775963;78;21106;-65
2022/06/19 06:18:33;;;;;;;4.33;2.12;;;;;;;29.42;47.99;99157.56;1762797;79;21245;-65
2022/06/19 06:21:13;;;;;;;3.98;1.82;;;;;;;29.79;47.48;99161.16;1796206;78;21001;-66
2022/06/19 06:23:41;;;;;;;5.20;1.90;;;;;;;30.40;47.19;99144.60;1766745;79;20947;-66
2022/06/19 06:26:12;;;;;;;4.12;1.85;;;;;;;30.40;47.19;99144.60;1771938;78;21052;-66
2022/06/19 06:29:07;;;;;;;;;;;;;;;30.55;45.91;99157.25;1839975;76;22414;-65
2022/06/19 06:31:35;;;;;;;4.28;2.00;;;;;;;30.01;45.20;99155.81;1803577;78;20141;-65
2022/06/19 06:34:03;;;;;;;4.70;1.90;;;;;;;29.63;45.12;99147.13;1810587;78;21116;-66
2022/06/19 06:36:31;;;;;;;4.83;1.77;;;;;;;29.49;44.83;99138.72;1806818;77;20989;-64
2022/06/19 06:38:58;;;;;;;8.38;2.47;;;;;;;29.14;44.52;99147.03;1806684;78;21707;-64
2022/06/19 06:41:26;;;;;;;5.78;2.10;;;;;;;29.06;44.73;99150.44;1799465;78;21027;-64
2022/06/19 06:43:54;;;;;;;6.90;2.00;;;;;;;29.36;44.68;99153.55;1817083;78;20937;-64
2022/06/19 06:46:24;;;;;;;4.47;2.33;;;;;;;29.15;43.97;99159.95;1798756;77;22024;-63
2022/06/19 06:48:55;;;;;;;8.53;2.37;;;;;;;29.06;44.10;99157.98;1802853;78;20967;-64
2022/06/19 06:51:26;;;;;;;5.58;2.27;;;;;;;29.06;44.14;99152.61;1800864;77;21062;-64
2022/06/19 06:53:55;;;;;;;4.03;1.72;;;;;;;29.48;44.42;99148.36;1800773;77;21041;-63
2022/06/19 06:56:22;;;;;;;6.58;2.00;;;;;;;29.92;43.91;99165.17;1811076;77;21910;-64
2022/06/19 06:58:50;;;;;;;4.83;2.05;;;;;;;29.81;42.70;99181.44;1813585;77;21105;-64
2022/06/19 07:03:56;;;;;;;4.40;2.22;;;;;;;29.74;43.40;99211.55;1858854;75;23275;-64
2022/06/19 07:06:33;;;;;;;3.67;2.02;;;;;;;29.64;42.78;99220.06;1834280;77;21055;-65
2022/06/19 07:08:57;;;;;;;4.67;2.00;;;;;;;29.73;43.22;99222.55;1825886;77;21114;-66
2022/06/19 07:11:37;;;;;;;3.92;1.90;;;;;;;30.24;43.17;99227.22;1830562;77;22343;-65
2022/06/19 07:14:06;;;;;;;4.75;1.82;;;;;;;29.44;41.29;99221.91;1832439;77;21590;-65
2022/06/19 07:16:33;;;;;;;3.47;1.50;;;;;;;28.29;40.90;99220.96;1835702;77;21055;-65
2022/06/19 07:19:00;;;;;;;3.70;1.92;;;;;;;27.82;41.53;99209.95;1833894;77;20927;-65
2022/06/19 07:21:27;;;;;;;4.97;1.72;;;;;;;27.93;41.57;99194.34;1833631;76;22494;-65
2022/06/19 07:23:54;;;;;;;3.60;1.60;;;;;;;27.88;42.17;99180.98;1770724;78;20979;-66
2022/06/19 07:26:23;;;;;;;3.83;1.60;;;;;;;28.29;42.36;99172.64;1790586;78;20989;-65
2022/06/19 07:28:49;;;;;;;5.10;1.67;;;;;;;28.39;41.77;99166.88;1739995;78;21071;-65
2022/06/19 07:31:16;;;;;;;6.03;1.90;;;;;;;27.97;41.00;99154.00;1792085;78;21029;-65
2022/06/19 07:33:43;;;;;;;5.60;1.62;;;;;;;27.26;41.23;99137.54;1790679;79;21106;-65
2022/06/19 07:36:17;;;;;;;7.08;1.70;;;;;;;27.27;41.98;99139.19;1770415;79;21049;-64
2022/06/19 07:38:45;;;;;;;3.85;1.57;;;;;;;27.44;41.86;99150.44;1791086;79;21005;-63
2022/06/19 07:41:12;;;;;;;3.75;1.57;;;;;;;27.46;41.54;99140.36;1789045;78;21052;-63
2022/06/19 07:43:39;;;;;;;3.92;1.52;;;;;;;27.43;41.44;99133.53;1790165;79;21043;-63
2022/06/19 07:46:06;;;;;;;2.87;1.40;;;;;;;27.12;41.07;99115.66;1790365;79;21195;-63
2022/06/19 07:51:18;;;;;;;3.87;1.60;;;;;;;26.55;41.27;99095.48;1791711;79;21069;-63
2022/06/19 07:53:45;;;;;;;4.78;1.85;;;;;;;26.85;41.27;99095.33;1790754;77;21072;-64
2022/06/19 07:56:11;;;;;;;;;;;;;;;26.97;41.20;99081.74;1790681;79;21482;-63
2022/06/19 07:58:38;;;;;;;7.92;2.50;;;;;;;27.04;40.91;99079.63;1787493;79;21309;-64
2022/06/19 08:01:05;;;;;;;;;;;;;;;26.60;40.65;99067.29;1797443;79;20999;-64
2022/06/19 08:03:32;;;;;;;11.75;2.40;;;;;;;25.83;40.79;99070.86;1779102;78;20165;-63
2022/06/19 08:05:58;;;;;;;5.33;2.17;;;;;;;25.25;41.20;99066.33;1762353;80;21142;-63
2022/06/19 08:08:28;;;;;;;6.08;2.50;;;;;;;25.13;41.68;99057.39;1778372;78;20984;-63
2022/06/19 08:10:57;;;;;;;10.50;2.40;;;;;;;24.77;41.68;99050.03;1764790;80;22134;-63
2022/06/19 08:13:28;;;;;;;3.80;2.10;;;;;;;24.41;42.30;99040.96;1777411;80;21097;-63
2022/06/19 08:15:59;;;;;;;5.35;2.52;;;;;;;24.12;42.62;99037.16;1780393;80;20974;-63
2022/06/19 08:18:27;;;;;;;6.15;2.85;;;;;;;23.84;43.01;99032.31;1767521;80;21086;-64
2022/06/19 08:20:54;;;;;;;4.83;2.60;;;;;;;23.62;43.53;99043.71;1773036;80;20955;-63
2022/06/19 08:23:22;;;;;;;8.18;2.62;;;;;;;23.35;43.96;99032.97;1763228;80;21066;-63
2022/06/19 08:25:49;;;;;;;6.95;2.47;;;;;;;23.16;44.61;99031.52;1771265;80;20987;-63
2022/06/19 08:28:26;;;;;;;7.17;2.75;;;;;;;23.12;45.06;99036.87;1770895;80;21063;-63
2022/06/19 08:30:48;;;;;;;5.00;2.15;;;;;;;23.04;45.26;99028.89;1763488;78;20975;-63
2022/06/19 08:33:15;;;;;;;6.55;2.47;;;;;;;23.01;45.53;99041.53;1778335;78;21052;-63
2022/06/19 08:35:50;;;;;;;10.15;2.80;;;;;;;22.90;45.95;99048.50;1769531;78;21825;-63
2022/06/19 08:38:22;;;;;;;5.10;2.37;;;;;;;22.62;46.28;99049.34;1771859;78;22243;-63
2022/06/19 08:41:35;;;;;;;7.22;2.83;;;;;;;22.53;46.75;99045.03;1777800;80;21532;-62
2022/06/19 08:44:19;;;;;;;5.90;2.58;;;;;;;22.33;46.89;99035.20;1774321;78;21557;-63
2022/06/19 08:47:43;;;;;;;7.15;2.50;;;;;;;22.13;47.53;99035.98;1777107;80;21022;-63
2022/06/19 08:50:18;;;;;;;11.20;2.75;;;;;;;22.16;47.90;99030.84;1779863;80;21237;-62
2022/06/19 08:53:06;;;;;;;6.30;2.37;;;;;;;22.05;48.26;99028.81;1779593;80;21012;-63
2022/06/19 08:55:41;;;;;;;6.45;2.90;;;;;;;21.86;48.64;99045.03;1780490;78;21282;-63
2022/06/19 08:58:16;;;;;;;8.70;2.92;;;;;;;21.83;48.91;99032.07;1777930;80;20986;-62
2022/06/19 09:01:10;;;;;;;6.15;2.83;;;;;;;21.94;49.64;99022.97;1772204;78;21052;-62
2022/06/19 09:06:48;;;;;;;5.47;2.47;;;;;;;22.12;49.70;99030.30;1769398;79;21017;-62
2022/06/19 09:09:41;;;;;;;15.35;3.42;;;;;;;22.03;50.05;99050.73;1770403;80;21176;-62
2022/06/19 09:12:19;;;;;;;7.33;2.92;;;;;;;22.05;50.58;99030.14;1742580;81;21192;-63
2022/06/19 09:14:57;;;;;;;5.55;2.62;;;;;;;22.21;50.49;99045.81;1738511;81;21599;-62
2022/06/19 09:17:56;;;;;;;6.53;3.15;;;;;;;22.31;50.85;99049.16;1740447;81;21094;-63
2022/06/19 09:20:31;;;;;;;10.10;3.52;;;;;;;22.62;50.79;99053.84;1735758;81;21394;-62
2022/06/19 09:23:19;;;;;;;6.37;2.50;;;;;;;23.03;50.95;99054.69;1737931;81;21075;-62
2022/06/19 09:25:57;;;;;;;8.48;2.60;;;;;;;23.10;50.56;99049.51;1735608;81;21010;-63
2022/06/19 09:28:52;;;;;;;6.75;2.70;;;;;;;23.18;50.45;99062.81;1726298;81;21064;-63
2022/06/19 09:31:26;;;;;;;6.80;2.72;;;;;;;23.15;50.07;99043.18;1733651;80;21102;-63
2022/06/19 09:34:04;;;;;;;9.20;2.20;;;;;;;23.03;50.01;99036.05;1741926;80;21089;-63
2022/06/19 09:37:01;;;;;;;7.33;2.80;;;;;;;22.78;49.88;99016.59;1728633;80;21153;-63
2022/06/19 09:39:47;;;;;;;;;;;;;;;22.59;49.62;99005.78;1743313;81;21164;-63
2022/06/19 09:42:25;;;;;;;6.67;3.02;;;;;;;22.37;50.07;98993.97;1735534;80;20255;-62
2022/06/19 09:45:06;;;;;;;7.47;2.85;;;;;;;22.51;50.11;98984.00;1740305;81;21431;-63
2022/06/19 09:47:43;;;;;;;7.97;2.90;;;;;;;22.33;49.90;98989.50;1752714;80;21092;-62
2022/06/19 09:50:30;;;;;;;4.30;2.65;;;;;;;22.31;49.86;98998.62;1771880;80;21555;-63
2022/06/19 09:53:11;;;;;;;7.08;3.37;;;;;;;22.12;50.08;99017.87;1771030;80;21002;-63
2022/06/19 09:55:51;;;;;;;7.97;3.45;;;;;;;22.05;50.39;99020.84;1744677;80;21067;-63
2022/06/19 09:58:29;;;;;;;5.75;2.75;;;;;;;21.91;50.46;99004.20;1746788;80;21296;-63
2022/06/19 10:00:59;;;;;;;9.80;3.45;;;;;;;22.00;50.73;99014.34;1756094;80;21058;-63
2022/06/19 10:03:35;;;;;;;9.48;3.27;;;;;;;22.06;50.55;99011.86;1721151;82;21072;-63
2022/06/19 10:06:13;;;;;;;8.23;3.12;;;;;;;22.06;50.77;99027.80;1751754;80;21114;-63
2022/06/19 10:08:53;;;;;;;6.80;2.50;;;;;;;22.23;50.78;99019.89;1755858;80;21167;-63
2022/06/19 10:11:36;;;;;;;6.45;2.62;;;;;;;22.12;50.48;99048.45;1732800;81;21529;-63
2022/06/19 10:14:23;;;;;;;8.70;2.62;;;;;;;21.70;50.55;99056.92;1725575;82;21646;-63
2022/06/19 10:17:06;;;;;;;5.95;3.02;;;;;;;21.76;51.24;99056.28;1721750;81;21567;-62
2022/06/19 10:19:50;;;;;;;4.97;2.30;;;;;;;21.59;50.70;99045.61;1733175;82;21108;-63
2022/06/19 10:22:54;;;;;;;5.30;2.70;;;;;;;21.64;50.77;99030.00;1727166;81;21129;-62
2022/06/19 10:25:52;;;;;;;6.72;3.58;;;;;;;21.71;50.94;99025.40;1729365;82;22470;-63
2022/06/19 10:29:02;;;;;;;6.33;2.47;;;;;;;21.75;51.07;99016.10;1720672;81;21024;-63
2022/06/19 10:31:52;;;;;;;9.13;2.80;;;;;;;21.73;50.31;99008.78;1751266;81;22004;-62
2022/06/19 10:34:52;;;;;;;9.65;2.80;;;;;;;21.48;50.58;99010.01;1783559;80;21053;-63
2022/06/19 10:37:39;;;;;;;11.50;2.98;;;;;;;21.35;50.36;99010.44;1776846;80;20971;-62
2022/06/19 10:40:17;;;;;;;8.15;2.75;;;;;;;21.18;50.29;99028.11;1773777;78;21811;-60
2022/06/19 10:42:52;;;;;;;6.75;2.30;;;;;;;21.21;50.04;99027.78;1766140;80;21044;-63
2022/06/19 10:45:46;;;;;;;8.20;2.87;;;;;;;21.10;50.09;99017.44;1766105;80;21009;-62
2022/06/19 10:48:31;;;;;;;9.53;2.37;;;;;;;20.68;49.90;99010.69;1765302;80;21044;-63
2022/06/19 10:51:05;;;;;;;9.80;2.47;;;;;;;20.25;51.03;98995.89;1760751;80;20989;-62
2022/06/19 10:53:46;;;;;;;7.62;2.20;;;;;;;20.13;50.80;98966.61;1761309;79;20956;-63
2022/06/19 10:56:38;;;;;;;11.83;2.40;;;;;;;20.03;52.30;98972.50;1767010;81;21647;-63
2022/06/19 10:59:06;;;;;;;6.87;1.90;;;;;;;19.74;51.21;98946.20;1767167;80;21002;-64
2022/06/19 11:04:13;;;;;;;9.65;2.45;;;;;;;19.61;52.05;98958.46;1724672;79;21148;-63
2022/06/19 11:06:59;;;;;;;7.55;2.30;;;;;;;19.60;51.78;98955.45;1770095;79;21204;-62
2022/06/19 11:09:32;;;;;;;10.75;2.37;;;;;;;19.35;52.31;98952.55;1774122;79;20998;-62
2022/06/19 11:12:22;;;;;;;6.62;1.82;;;;;;;19.19;52.30;98958.95;1777672;79;21077;-63
2022/06/19 11:14:56;;;;;;;8.05;2.62;;;;;;;18.98;52.57;98939.31;1722123;81;21641;-62
2022/06/19 11:17:40;;;;;;;6.20;1.98;;;;;;;18.98;52.70;98929.56;1722979;82;21481;-62
2022/06/19 11:20:28;;;;;;;10.60;1.90;;;;;;;19.00;52.70;98945.30;1778784;79;22477;-63
2022/06/19 11:23:09;;;;;;;7.47;2.15;;;;;;;18.87;52.75;98932.39;1778584;78;21003;-63
2022/06/19 11:25:39;;;;;;;9.25;2.08;;;;;;;18.99;53.02;98941.83;1782033;78;21152;-63
2022/06/19 11:28:10;;;;;;;6.30;2.37;;;;;;;19.03;53.03;98958.73;1734297;80;21074;-62
2022/06/19 11:30:57;;;;;;;8.15;2.20;;;;;;;19.14;52.95;98966.48;1780109;79;21149;-63
2022/06/19 11:33:34;;;;;;;6.03;2.15;;;;;;;19.13;52.65;98955.54;1772440;78;21654;-63
2022/06/19 11:36:05;;;;;;;6.72;2.08;;;;;;;19.04;52.55;98940.55;1774788;79;20955;-63
2022/06/19 11:38:40;;;;;;;8.58;2.50;;;;;;;19.01;52.52;98930.59;1779192;78;21014;-63
2022/06/19 11:41:32;;;;;;;8.38;2.17;;;;;;;19.00;52.32;98932.91;1774775;78;21623;-63
2022/06/19 11:44:19;;;;;;;6.92;2.60;;;;;;;18.88;52.21;98910.27;1776163;79;21136;-62
2022/06/19 11:46:55;;;;;;;5.22;2.08;;;;;;;18.90;52.53;98897.71;1769386;79;23256;-62
2022/06/19 11:49:32;;;;;;;9.70;2.30;;;;;;;19.01;52.79;98893.55;1776989;80;21058;-63
2022/06/19 11:52:07;;;;;;;6.83;1.87;;;;;;;19.12;52.68;98898.32;1803942;77;20994;-63
2022/06/19 11:54:39;;;;;;;7.83;1.98;;;;;;;19.20;52.62;98887.83;1827941;77;21000;-62
2022/06/19 11:57:08;;;;;;;7.67;2.37;;;;;;;19.28;52.82;98879.99;1826722;77;20979;-62
2022/06/19 11:59:44;;;;;;;9.45;1.95;;;;;;;19.23;52.45;98876.95;1827540;77;21125;-63
2022/06/19 12:02:36;;;;;;;8.23;2.25;;;;;;;19.28;52.68;98885.28;1837190;77;21650;-63
2022/06/19 12:05:08;;;;;;;7.70;2.08;;;;;;;19.27;52.77;98867.75;1820507;77;21685;-62
2022/06/19 12:07:38;;;;;;;6.87;2.10;;;;;;;19.18;52.72;98868.62;1796274;78;21329;-63
2022/06/19 12:10:19;;;;;;;7.80;1.85;;;;;;;19.12;52.21;98844.08;1812729;78;21509;-63
2022/06/19 12:12:56;;;;;;;7.62;1.90;;;;;;;18.96;52.26;98854.83;1814645;78;22347;-63
2022/06/19 12:15:31;;;;;;;7.45;2.20;;;;;;;18.82;51.98;98844.74;1814684;77;21200;-63
2022/06/19 12:18:03;;;;;;;4.50;1.92;;;;;;;18.76;52.26;98834.72;1814323;77;20958;-63
2022/06/19 12:20:36;;;;;;;5.42;1.57;;;;;;;18.75;52.35;98854.22;1819067;78;20991;-63
2022/06/19 12:23:16;;;;;;;4.58;1.70;;;;;;;18.78;52.38;98839.38;1817570;78;21017;-63
2022/06/19 12:25:50;;;;;;;3.10;1.40;;;;;;;18.89;52.64;98858.20;1813871;78;21084;-63
2022/06/19 12:28:40;;;;;;;4.97;1.70;;;;;;;18.99;53.01;98864.29;1818748;78;21054;-63
2022/06/19 12:31:21;;;;;;;5.65;1.70;;;;;;;18.98;52.93;98858.14;1813990;78;21001;-63